Time,TemperatureF,DewpointF,PressureIn,WindDirection,WindDirectionDegrees,WindSpeedMPH,WindSpeedGustMPH,Humidity,HourlyPrecipIn,Conditions,Clouds,dailyrainin,SoftwareType,DateUTC
2014-01-20 00:07:00,36.3,30.1,29.68,West,270,0.0,-999.0,78,-99.99,,,0.00,Acu-Link.com,2014-01-20 06:07:00,
2014-01-20 00:23:00,36.3,30.1,29.69,WNW,292,0.0,-999.0,78,-99.99,,,0.00,Acu-Link.com,2014-01-20 06:23:00,
2014-01-20 00:38:00,36.0,29.8,29.69,West,270,0.0,-999.0,78,-99.99,,,0.00,Acu-Link.com,2014-01-20 06:38:00,
2014-01-20 00:53:00,35.6,29.7,29.69,West,270,0.0,-999.0,79,-99.99,,,0.00,Acu-Link.com,2014-01-20 06:53:00,
2014-01-20 01:09:00,35.4,29.5,29.69,WNW,292,0.0,-999.0,79,-99.99,,,0.00,Acu-Link.com,2014-01-20 07:09:00,
2014-01-20 01:24:00,35.2,29.7,29.69,West,270,8.9,-999.0,80,-99.99,,,0.00,Acu-Link.com,2014-01-20 07:24:00,
2014-01-20 01:39:00,34.9,29.4,29.70,NNW,337,8.9,-999.0,80,-99.99,,,0.00,Acu-Link.com,2014-01-20 07:39:00,
2014-01-20 01:54:00,34.7,29.5,29.71,West,270,0.0,-999.0,81,-99.99,,,0.00,Acu-Link.com,2014-01-20 07:54:00,
2014-01-20 02:09:00,34.5,29.3,29.71,WNW,292,7.8,-999.0,81,-99.99,,,0.00,Acu-Link.com,2014-01-20 08:09:00,
2014-01-20 02:25:00,34.3,29.1,29.73,West,270,0.0,-999.0,81,-99.99,,,0.00,Acu-Link.com,2014-01-20 08:25:00,
2014-01-20 02:40:00,34.3,29.4,29.73,NW,315,0.0,-999.0,82,-99.99,,,0.00,Acu-Link.com,2014-01-20 08:40:00,
2014-01-20 02:55:00,34.0,29.1,29.74,NW,315,0.0,-999.0,82,-99.99,,,0.00,Acu-Link.com,2014-01-20 08:55:00,
2014-01-20 03:11:00,33.8,29.2,29.75,West,270,0.0,-999.0,83,-99.99,,,0.00,Acu-Link.com,2014-01-20 09:11:00,
2014-01-20 03:26:00,33.4,28.8,29.75,NW,315,0.0,-999.0,83,-99.99,,,0.00,Acu-Link.com,2014-01-20 09:26:00,
2014-01-20 03:41:00,32.9,28.6,29.75,ESE,112,0.0,-999.0,84,-99.99,,,0.00,Acu-Link.com,2014-01-20 09:41:00,
2014-01-20 03:56:00,32.7,28.4,29.76,WNW,292,0.0,-999.0,84,-99.99,,,0.00,Acu-Link.com,2014-01-20 09:56:00,
2014-01-20 04:12:00,32.4,28.4,29.76,West,270,0.0,-999.0,85,-99.99,,,0.00,Acu-Link.com,2014-01-20 10:12:00,
2014-01-20 04:27:00,32.0,28.0,29.77,West,270,0.0,-999.0,85,-99.99,,,0.00,Acu-Link.com,2014-01-20 10:27:00,
2014-01-20 04:42:00,31.5,27.8,29.77,WNW,292,0.0,-999.0,86,-99.99,,,0.00,Acu-Link.com,2014-01-20 10:42:00,
2014-01-20 04:58:00,31.1,27.4,29.77,West,270,0.0,-999.0,86,-99.99,,,0.00,Acu-Link.com,2014-01-20 10:58:00,
2014-01-20 05:13:00,30.7,27.0,29.77,West,270,0.0,-999.0,86,-99.99,,,0.00,Acu-Link.com,2014-01-20 11:13:00,
2014-01-20 05:28:00,30.6,27.2,29.76,NW,315,0.0,-999.0,87,-99.99,,,0.00,Acu-Link.com,2014-01-20 11:28:00,
2014-01-20 05:43:00,30.6,27.2,29.77,SW,225,0.0,-999.0,87,-99.99,,,0.00,Acu-Link.com,2014-01-20 11:43:00,
2014-01-20 05:59:00,30.6,27.2,29.77,West,270,6.8,-999.0,87,-99.99,,,0.00,Acu-Link.com,2014-01-20 11:59:00,
2014-01-20 06:14:00,31.1,27.7,29.78,SW,225,7.3,-999.0,87,-99.99,,,0.00,Acu-Link.com,2014-01-20 12:14:00,
2014-01-20 06:29:00,31.6,27.9,29.77,West,270,5.3,-999.0,86,-99.99,,,0.00,Acu-Link.com,2014-01-20 12:29:00,
2014-01-20 06:44:00,31.5,27.8,29.77,West,270,4.2,-999.0,86,-99.99,,,0.00,Acu-Link.com,2014-01-20 12:44:00,
2014-01-20 06:59:00,31.5,27.8,29.77,West,270,6.3,-999.0,86,-99.99,,,0.00,Acu-Link.com,2014-01-20 12:59:00,
2014-01-20 07:14:00,31.3,27.6,29.78,West,270,6.3,-999.0,86,-99.99,,,0.00,Acu-Link.com,2014-01-20 13:14:00,
2014-01-20 07:29:00,31.1,27.4,29.77,West,270,8.9,-999.0,86,-99.99,,,0.00,Acu-Link.com,2014-01-20 13:29:00,
2014-01-20 07:44:00,30.9,27.2,29.77,West,270,0.0,-999.0,86,-99.99,,,0.00,Acu-Link.com,2014-01-20 13:44:00,
2014-01-20 08:00:00,31.3,27.6,29.77,West,270,0.0,-999.0,86,-99.99,,,0.00,Acu-Link.com,2014-01-20 14:00:00,
2014-01-20 08:15:00,31.6,27.6,29.78,West,270,8.9,-999.0,85,-99.99,,,0.00,Acu-Link.com,2014-01-20 14:15:00,
2014-01-20 08:30:00,31.8,27.5,29.79,West,270,8.3,-999.0,84,-99.99,,,0.00,Acu-Link.com,2014-01-20 14:30:00,
2014-01-20 08:45:00,32.2,27.6,29.79,WNW,292,15.0,-999.0,83,-99.99,,,0.00,Acu-Link.com,2014-01-20 14:45:00,
2014-01-20 09:00:00,32.7,27.8,29.80,West,270,7.8,-999.0,82,-99.99,,,0.00,Acu-Link.com,2014-01-20 15:00:00,
2014-01-20 09:15:00,33.6,28.1,29.81,WNW,292,14.5,-999.0,80,-99.99,,,0.00,Acu-Link.com,2014-01-20 15:15:00,
2014-01-20 09:30:00,34.5,28.4,29.81,WNW,292,18.1,-999.0,78,-99.99,,,0.00,Acu-Link.com,2014-01-20 15:30:00,
2014-01-20 09:45:00,34.9,28.8,29.82,West,270,7.8,-999.0,78,-99.99,,,0.00,Acu-Link.com,2014-01-20 15:45:00,
2014-01-20 10:01:00,34.9,28.4,29.83,West,270,17.6,-999.0,77,-99.99,,,0.00,Acu-Link.com,2014-01-20 16:01:00,
2014-01-20 10:16:00,34.7,28.6,29.83,West,270,8.9,-999.0,78,-99.99,,,0.00,Acu-Link.com,2014-01-20 16:16:00,
2014-01-20 10:31:00,34.5,28.7,29.83,West,270,0.0,-999.0,79,-99.99,,,0.00,Acu-Link.com,2014-01-20 16:31:00,
2014-01-20 10:46:00,33.8,29.5,29.84,WNW,292,14.0,-999.0,84,-99.99,,,0.00,Acu-Link.com,2014-01-20 16:46:00,
2014-01-20 11:01:00,34.0,30.0,29.85,NW,315,10.4,-999.0,85,-99.99,,,0.00,Acu-Link.com,2014-01-20 17:01:00,
2014-01-20 11:16:00,34.7,30.1,29.84,WNW,292,0.0,-999.0,83,-99.99,,,0.00,Acu-Link.com,2014-01-20 17:16:00,
2014-01-20 11:31:00,34.7,29.8,29.85,NW,315,0.0,-999.0,82,-99.99,,,0.00,Acu-Link.com,2014-01-20 17:31:00,
2014-01-20 11:47:00,34.7,29.5,29.85,NW,315,9.9,-999.0,81,-99.99,,,0.00,Acu-Link.com,2014-01-20 17:47:00,
2014-01-20 12:02:00,34.9,29.7,29.85,West,270,0.0,-999.0,81,-99.99,,,0.00,Acu-Link.com,2014-01-20 18:02:00,
2014-01-20 12:17:00,34.9,30.3,29.84,West,270,13.5,-999.0,83,-99.99,,,0.00,Acu-Link.com,2014-01-20 18:17:00,
2014-01-20 12:33:00,33.8,30.6,29.84,WNW,292,16.6,-999.0,88,-99.99,,,0.00,Acu-Link.com,2014-01-20 18:33:00,
2014-01-20 12:48:00,33.6,31.0,29.84,West,270,11.9,-999.0,90,-99.99,,,0.00,Acu-Link.com,2014-01-20 18:48:00,
2014-01-20 13:03:00,33.6,31.0,29.84,WNW,292,11.4,-999.0,90,-99.99,,,0.00,Acu-Link.com,2014-01-20 19:03:00,
2014-01-20 13:18:00,27.9,25.1,29.86,NNE,22,0.0,-999.0,89,-99.99,,,0.00,Acu-Link.com,2014-01-20 19:18:00,
2014-01-20 13:33:00,24.3,21.8,29.88,NNE,22,17.6,-999.0,90,-99.99,,,0.00,Acu-Link.com,2014-01-20 19:33:00,
2014-01-20 13:48:00,22.5,19.5,29.89,NNE,22,0.0,-999.0,88,-99.99,,,0.00,Acu-Link.com,2014-01-20 19:48:00,
2014-01-20 14:03:00,21.4,18.1,29.91,NW,315,0.0,-999.0,87,-99.99,,,0.00,Acu-Link.com,2014-01-20 20:03:00,
2014-01-20 14:19:00,19.8,16.8,29.93,ENE,67,8.9,-999.0,88,-99.99,,,0.00,Acu-Link.com,2014-01-20 20:19:00,
2014-01-20 14:34:00,19.0,15.5,29.94,North,0,15.0,-999.0,86,-99.99,,,0.00,Acu-Link.com,2014-01-20 20:34:00,
2014-01-20 14:49:00,16.3,13.1,29.97,WNW,292,11.4,-999.0,87,-99.99,,,0.00,Acu-Link.com,2014-01-20 20:49:00,
2014-01-20 15:04:00,14.4,11.8,30.00,North,0,11.4,-999.0,89,-99.99,,,0.00,Acu-Link.com,2014-01-20 21:04:00,
2014-01-20 15:19:00,13.5,10.9,30.03,NNW,337,15.0,-999.0,89,-99.99,,,0.00,Acu-Link.com,2014-01-20 21:19:00,
2014-01-20 15:34:00,12.4,9.5,30.04,NNW,337,14.0,-999.0,88,-99.99,,,0.00,Acu-Link.com,2014-01-20 21:34:00,
2014-01-20 15:49:00,11.3,7.7,30.08,NNW,337,17.1,-999.0,85,-99.99,,,0.00,Acu-Link.com,2014-01-20 21:49:00,
2014-01-20 16:04:00,10.4,7.1,30.09,NNE,22,0.0,-999.0,86,-99.99,,,0.01,Acu-Link.com,2014-01-20 22:04:00,
2014-01-20 16:19:00,9.5,6.2,30.11,NNW,337,10.9,-999.0,86,-99.99,,,0.01,Acu-Link.com,2014-01-20 22:19:00,
2014-01-20 16:34:00,9.0,5.2,30.13,NW,315,20.7,-999.0,84,-99.99,,,0.01,Acu-Link.com,2014-01-20 22:34:00,
2014-01-20 16:50:00,8.1,4.5,30.14,NW,315,10.4,-999.0,85,-99.99,,,0.01,Acu-Link.com,2014-01-20 22:50:00,
2014-01-20 17:05:00,6.8,2.8,30.15,NNW,337,9.9,-999.0,83,-99.99,,,0.01,Acu-Link.com,2014-01-20 23:05:00,
2014-01-20 17:20:00,6.1,1.8,30.17,NNW,337,0.0,-999.0,82,-99.99,,,0.01,Acu-Link.com,2014-01-20 23:20:00,
2014-01-20 17:35:00,5.4,2.1,30.18,NNW,337,13.5,-999.0,86,-99.99,,,0.01,Acu-Link.com,2014-01-20 23:35:00,
2014-01-20 17:50:00,3.9,-0.9,30.19,NW,315,0.0,-999.0,80,-99.99,,,0.02,Acu-Link.com,2014-01-20 23:50:00,
2014-01-20 18:05:00,3.7,0.2,30.21,NNW,337,0.0,-999.0,85,-99.99,,,0.04,Acu-Link.com,2014-01-21 00:05:00,
2014-01-20 18:21:00,2.5,-2.2,30.23,NNW,337,13.0,-999.0,80,-99.99,,,0.04,Acu-Link.com,2014-01-21 00:21:00,
2014-01-20 18:36:00,2.5,-2.0,30.24,NE,45,0.0,-999.0,81,-99.99,,,0.04,Acu-Link.com,2014-01-21 00:36:00,
2014-01-20 18:51:00,1.9,-2.8,30.26,NW,315,17.1,-999.0,80,-99.99,,,0.04,Acu-Link.com,2014-01-21 00:51:00,
2014-01-20 19:22:00,1.2,-3.8,30.29,WNW,292,0.0,-999.0,79,-99.99,,,0.04,Acu-Link.com,2014-01-21 01:22:00,
2014-01-20 19:37:00,0.1,-5.9,30.31,NW,315,0.0,-999.0,75,-99.99,,,0.04,Acu-Link.com,2014-01-21 01:37:00,
2014-01-20 19:52:00,-0.6,-7.4,30.31,WNW,292,19.1,-999.0,72,-99.99,,,0.04,Acu-Link.com,2014-01-21 01:52:00,
2014-01-20 20:07:00,-0.9,-7.4,30.31,NE,45,17.1,-999.0,73,-99.99,,,0.04,Acu-Link.com,2014-01-21 02:07:00,
2014-01-20 20:22:00,-1.7,-8.5,30.32,NW,315,11.4,-999.0,72,-99.99,,,0.04,Acu-Link.com,2014-01-21 02:22:00,
2014-01-20 20:37:00,-2.2,-9.3,30.32,North,0,9.4,-999.0,71,-99.99,,,0.04,Acu-Link.com,2014-01-21 02:37:00,
2014-01-20 20:53:00,-2.6,-9.1,30.32,WNW,292,0.0,-999.0,73,-99.99,,,0.04,Acu-Link.com,2014-01-21 02:53:00,
2014-01-20 21:08:00,-3.1,-10.1,30.33,WNW,292,0.0,-999.0,71,-99.99,,,0.04,Acu-Link.com,2014-01-21 03:08:00,
2014-01-20 21:23:00,-3.8,-10.8,30.33,WNW,292,9.9,-999.0,71,-99.99,,,0.04,Acu-Link.com,2014-01-21 03:23:00,
2014-01-20 21:38:00,-4.4,-11.4,30.33,NW,315,0.0,-999.0,71,-99.99,,,0.04,Acu-Link.com,2014-01-21 03:38:00,
2014-01-20 21:53:00,-4.7,-11.7,30.34,NNE,22,0.0,-999.0,71,-99.99,,,0.04,Acu-Link.com,2014-01-21 03:53:00,
2014-01-20 22:09:00,-4.9,-11.3,30.35,NNW,337,0.0,-999.0,73,-99.99,,,0.04,Acu-Link.com,2014-01-21 04:09:00,
2014-01-20 22:24:00,-5.1,-11.8,30.35,NW,315,0.0,-999.0,72,-99.99,,,0.04,Acu-Link.com,2014-01-21 04:24:00,
2014-01-20 22:39:00,-5.6,-12.5,30.36,North,0,0.0,-999.0,71,-99.99,,,0.04,Acu-Link.com,2014-01-21 04:39:00,
2014-01-20 22:55:00,-6.0,-13.2,30.37,WNW,292,11.9,-999.0,70,-99.99,,,0.04,Acu-Link.com,2014-01-21 04:55:00,
2014-01-20 23:10:00,-6.3,-13.8,30.37,WNW,292,0.0,-999.0,69,-99.99,,,0.04,Acu-Link.com,2014-01-21 05:10:00,
2014-01-20 23:25:00,-6.7,-14.7,30.37,WNW,292,10.9,-999.0,67,-99.99,,,0.04,Acu-Link.com,2014-01-21 05:25:00,
2014-01-20 23:40:00,-6.7,-14.4,30.37,NNW,337,10.4,-999.0,68,-99.99,,,0.04,Acu-Link.com,2014-01-21 05:40:00,
2014-01-20 23:55:00,-7.1,-14.5,30.37,WNW,292,10.4,-999.0,69,-99.99,,,0.04,Acu-Link.com,2014-01-21 05:55:00,